首页
METAR-TAF:

METAR-TAF

机场 :

Monticello Municipal Airport/Ellis Field

Monticello, 阿肯色州, 美国

纬度: 33-38-18N, 经度: 091-45-04W, 海拔: 82米

当前天气观测

该预报发布于32分钟前的07:53 UTC
风速3节,风向多变
温度 13°C
湿度 94%
气压 1017 hPa
能見度: 16.1公里
天空无云

METAR: KLLQ 050753Z AUTO VRB03KT 10SM CLR 13/12 A3003 RMK AO2 SLP167 T01330117

时间: 03:25 (08:25 UTC)

预报

该预报发布于2小时和49分钟前的05:36 UTC
预报有效从05日的 06点(UTC)到 06日的 06点(UTC)
风速4节,风向东北
能見度: 10公里
散云层高于2500英尺
阴天层高于3500英尺
从 05日的 0900点(UTC)
风速4节,风向北转东北
能見度: 6.4公里
阴天层高于2500英尺
轻雾
从 05日的 1400点(UTC)
风速5节,风向北转东北
能見度: 10公里
阴天层高于2500英尺
从 05日的 1900点(UTC)
风速5节,风向北转东北
能見度: 10公里
阴天层高于5000英尺

TAF: KLLQ 050536Z 0506/0606 04004KT P6SM SCT025 OVC035 FM050900 02004KT 4SM BR OVC025 FM051400 03005KT P6SM OVC025 FM051900 03005KT P6SM OVC050

超过4000个机场的气象观测和天气预报(METAR&TAF报告)。

可查询的气象台以黄色和红色小点在地图上表示。

将鼠标移到小点上方,可查看气象台名称。

然后点击查看天气观测和预报。

如需切换地图:点击带黑十字的绿色按钮放大地图;点击带横线的绿色按钮缩小地图;或者点击绿色箭头查看邻近地区的地图。


METAR-TAF: